Time;durP1;ratioP1;P1;durP2;ratioP2;P2;SDS_P1;SDS_P2;PMS_P1;PMS_P2;Temp;Humidity;BMP_temperature;BMP_pressure;BME280_temperature;BME280_humidity;BME280_pressure;Samples;Min_cycle;Max_cycle;Signal;HPM_P1;HPM_P2
2023/03/01 00:01:31;;;;;;;7.45;4.20;;;;;;;;;;5082181;28;20478;-57
2023/03/01 00:03:58;;;;;;;9.98;5.80;;;;;;;;;;5081414;27;20043;-57
2023/03/01 00:06:25;;;;;;;8.60;5.13;;;;;;;;;;5080282;28;20047;-57
2023/03/01 00:08:51;;;;;;;6.55;3.15;;;;;;;;;;5083179;28;20098;-58
2023/03/01 00:11:22;;;;;;;9.95;6.15;;;;;;;;;;5084217;28;20522;-57
2023/03/01 00:13:49;;;;;;;7.25;5.57;;;;;;;;;;5083157;28;20040;-57
2023/03/01 00:16:17;;;;;;;8.52;4.65;;;;;;;;;;5080882;28;20090;-57
2023/03/01 00:18:43;;;;;;;8.63;5.38;;;;;;;;;;5080042;28;20066;-57
2023/03/01 00:21:09;;;;;;;8.30;5.32;;;;;;;;;;5080569;28;20041;-57
2023/03/01 00:23:35;;;;;;;10.43;6.20;;;;;;;;;;5078640;28;20044;-57
2023/03/01 00:26:02;;;;;;;7.88;4.97;;;;;;;;;;5082448;28;20048;-57
2023/03/01 00:28:28;;;;;;;16.58;6.68;;;;;;;;;;5082512;28;20127;-57
2023/03/01 00:30:54;;;;;;;8.98;6.32;;;;;;;;;;5079686;28;20121;-57
2023/03/01 00:33:20;;;;;;;5.65;4.03;;;;;;;;;;5082630;28;20927;-57
2023/03/01 00:35:46;;;;;;;9.20;5.65;;;;;;;;;;5081917;28;20037;-57
2023/03/01 00:38:12;;;;;;;7.53;5.03;;;;;;;;;;5081821;28;20526;-57
2023/03/01 00:40:38;;;;;;;7.60;5.35;;;;;;;;;;5081231;28;20040;-57
2023/03/01 00:43:04;;;;;;;7.00;4.38;;;;;;;;;;5079444;28;20040;-57
2023/03/01 00:45:33;;;;;;;8.35;5.13;;;;;;;;;;5081520;28;20044;-57
2023/03/01 00:47:59;;;;;;;8.90;5.18;;;;;;;;;;5077966;28;20523;-57
2023/03/01 00:50:25;;;;;;;10.15;5.53;;;;;;;;;;5079238;28;20045;-57
2023/03/01 00:52:55;;;;;;;6.13;3.60;;;;;;;;;;5081584;28;20132;-57
2023/03/01 00:55:22;;;;;;;10.65;4.68;;;;;;;;;;5078224;28;20119;-57
2023/03/01 00:57:48;;;;;;;8.15;4.80;;;;;;;;;;5076710;28;20123;-57
2023/03/01 01:00:14;;;;;;;8.82;5.20;;;;;;;;;;5075867;28;20132;-57
2023/03/01 01:02:40;;;;;;;10.50;5.82;;;;;;;;;;5078293;28;20036;-57
2023/03/01 01:05:07;;;;;;;10.63;6.13;;;;;;;;;;5078482;28;20047;-57
2023/03/01 01:07:33;;;;;;;6.65;4.75;;;;;;;;;;5074618;28;20052;-57
2023/03/01 01:09:59;;;;;;;8.35;4.93;;;;;;;;;;5078075;28;20123;-57
2023/03/01 01:12:25;;;;;;;10.15;6.18;;;;;;;;;;5080525;28;20051;-57
2023/03/01 01:14:51;;;;;;;6.90;4.47;;;;;;;;;;5079735;28;20056;-57
2023/03/01 01:17:17;;;;;;;9.85;5.70;;;;;;;;;;5078795;28;20071;-57
2023/03/01 01:19:43;;;;;;;11.75;5.68;;;;;;;;;;5074200;28;20049;-57
2023/03/01 01:22:09;;;;;;;4.88;3.90;;;;;;;;;;5079784;28;20481;-58
2023/03/01 01:24:35;;;;;;;13.55;6.15;;;;;;;;;;5071816;28;20131;-57
2023/03/01 01:27:01;;;;;;;6.20;4.43;;;;;;;;;;5075120;28;20123;-57
2023/03/01 01:29:28;;;;;;;9.68;5.47;;;;;;;;;;5075229;28;20052;-57
2023/03/01 01:31:54;;;;;;;9.40;5.47;;;;;;;;;;5076439;28;20041;-57
2023/03/01 01:34:21;;;;;;;8.02;3.88;;;;;;;;;;5080855;28;20108;-57
2023/03/01 01:36:54;;;;;;;9.38;5.50;;;;;;;;;;5078131;28;20044;-57
2023/03/01 01:39:20;;;;;;;9.25;4.60;;;;;;;;;;5078010;28;20044;-57
2023/03/01 01:41:47;;;;;;;4.55;3.67;;;;;;;;;;5079520;28;20048;-57
2023/03/01 01:44:13;;;;;;;8.82;5.65;;;;;;;;;;5081608;28;20481;-57
2023/03/01 01:46:41;;;;;;;4.03;2.65;;;;;;;;;;5073762;28;20475;-57
2023/03/01 01:49:12;;;;;;;7.43;4.43;;;;;;;;;;5077711;27;20128;-57
2023/03/01 01:51:40;;;;;;;6.00;4.20;;;;;;;;;;5078476;28;20513;-57
2023/03/01 01:54:10;;;;;;;8.30;4.80;;;;;;;;;;5077285;28;20049;-57
2023/03/01 01:56:39;;;;;;;4.13;2.92;;;;;;;;;;5076995;28;20138;-57
2023/03/01 01:59:05;;;;;;;8.32;4.70;;;;;;;;;;5079600;28;20547;-57
2023/03/01 02:01:31;;;;;;;9.75;5.20;;;;;;;;;;5080311;28;20068;-57
2023/03/01 02:03:58;;;;;;;8.50;5.30;;;;;;;;;;5078457;28;20051;-57
2023/03/01 02:06:30;;;;;;;5.55;3.03;;;;;;;;;;5080923;27;20053;-57
2023/03/01 02:08:59;;;;;;;15.57;6.60;;;;;;;;;;5076721;28;20437;-57
2023/03/01 02:11:26;;;;;;;4.80;3.72;;;;;;;;;;5079226;28;20067;-57
2023/03/01 02:13:53;;;;;;;6.93;5.47;;;;;;;;;;5074906;28;20050;-58
2023/03/01 02:16:19;;;;;;;12.35;6.05;;;;;;;;;;5080609;28;20045;-57
2023/03/01 02:18:46;;;;;;;8.93;4.95;;;;;;;;;;5078094;28;20048;-58
2023/03/01 02:21:26;;;;;;;9.00;5.53;;;;;;;;;;5079649;28;20032;-57
2023/03/01 02:23:53;;;;;;;7.40;3.35;;;;;;;;;;5077755;27;20075;-57
2023/03/01 02:26:19;;;;;;;9.02;5.10;;;;;;;;;;5079704;28;20040;-57
2023/03/01 02:28:45;;;;;;;6.70;4.22;;;;;;;;;;5077092;28;20044;-57
2023/03/01 02:34:00;;;;;;;7.63;4.40;;;;;;;;;;5078779;28;20504;-57
2023/03/01 02:36:29;;;;;;;8.15;4.90;;;;;;;;;;5078348;28;20056;-57
2023/03/01 02:38:57;;;;;;;4.45;1.88;;;;;;;;;;5077272;28;20044;-57
2023/03/01 02:41:25;;;;;;;11.43;5.72;;;;;;;;;;5076963;28;20036;-57
2023/03/01 02:43:51;;;;;;;8.75;5.70;;;;;;;;;;5074207;28;20040;-57
2023/03/01 02:46:22;;;;;;;7.35;5.07;;;;;;;;;;5073151;28;20064;-57
2023/03/01 02:48:58;;;;;;;11.15;5.35;;;;;;;;;;5079344;28;20043;-57
2023/03/01 02:51:34;;;;;;;7.15;2.47;;;;;;;;;;5073389;28;20039;-57
2023/03/01 02:54:12;;;;;;;8.55;4.63;;;;;;;;;;5075426;28;20048;-57
2023/03/01 02:56:38;;;;;;;9.10;5.22;;;;;;;;;;5073376;28;20056;-57
2023/03/01 02:59:05;;;;;;;8.80;5.75;;;;;;;;;;5077118;28;20440;-57
2023/03/01 03:01:37;;;;;;;5.18;3.47;;;;;;;;;;5078624;28;20036;-57
2023/03/01 03:04:04;;;;;;;11.15;5.85;;;;;;;;;;5075526;28;20465;-57
2023/03/01 03:06:30;;;;;;;8.25;4.75;;;;;;;;;;5076710;28;20055;-57
2023/03/01 03:08:56;;;;;;;10.07;5.40;;;;;;;;;;5078348;28;20078;-57
2023/03/01 03:11:23;;;;;;;7.47;4.97;;;;;;;;;;5080610;28;20040;-57
2023/03/01 03:13:49;;;;;;;7.65;4.60;;;;;;;;;;5075840;28;20044;-57
2023/03/01 03:16:15;;;;;;;7.90;4.85;;;;;;;;;;5077777;28;20039;-57
2023/03/01 03:18:42;;;;;;;5.65;3.28;;;;;;;;;;5080317;28;20040;-58
2023/03/01 03:21:10;;;;;;;11.48;7.15;;;;;;;;;;5077171;28;20584;-57
2023/03/01 03:23:36;;;;;;;10.80;5.55;;;;;;;;;;5081234;28;20052;-57
2023/03/01 03:26:06;;;;;;;9.70;6.00;;;;;;;;;;5083369;28;20196;-58
2023/03/01 03:28:32;;;;;;;10.52;5.93;;;;;;;;;;5082636;28;20588;-57
2023/03/01 03:31:03;;;;;;;6.63;4.70;;;;;;;;;;5080744;28;20537;-57
2023/03/01 03:33:29;;;;;;;6.25;4.25;;;;;;;;;;5080925;28;20040;-57
2023/03/01 03:35:56;;;;;;;11.93;5.65;;;;;;;;;;5080162;28;20071;-57
2023/03/01 03:38:22;;;;;;;8.68;5.50;;;;;;;;;;5081046;27;20043;-57
2023/03/01 03:40:50;;;;;;;5.18;3.13;;;;;;;;;;5084535;28;20103;-58
2023/03/01 03:43:17;;;;;;;8.57;5.50;;;;;;;;;;5081347;28;20130;-57
2023/03/01 03:45:47;;;;;;;9.40;5.15;;;;;;;;;;5083205;28;20485;-57
2023/03/01 03:48:13;;;;;;;10.48;5.47;;;;;;;;;;5083444;28;20067;-57
2023/03/01 03:50:40;;;;;;;9.23;4.80;;;;;;;;;;5084238;28;20043;-58
2023/03/01 03:53:07;;;;;;;12.90;5.45;;;;;;;;;;5082120;28;20414;-57
2023/03/01 03:55:34;;;;;;;11.27;6.50;;;;;;;;;;5081535;28;20158;-57
2023/03/01 03:58:06;;;;;;;9.88;5.65;;;;;;;;;;5083023;28;20047;-57
2023/03/01 04:00:33;;;;;;;8.80;4.15;;;;;;;;;;5081472;28;20175;-58
2023/03/01 04:02:59;;;;;;;12.52;5.40;;;;;;;;;;5083190;28;20040;-57
2023/03/01 04:05:26;;;;;;;7.05;4.65;;;;;;;;;;5079159;28;20055;-57
2023/03/01 04:08:01;;;;;;;10.75;5.90;;;;;;;;;;5080114;28;20039;-57
2023/03/01 04:10:31;;;;;;;8.32;5.40;;;;;;;;;;5081730;28;20135;-57
2023/03/01 04:12:57;;;;;;;7.47;5.00;;;;;;;;;;5082226;28;20434;-57
2023/03/01 04:15:24;;;;;;;12.10;6.15;;;;;;;;;;5076686;28;20044;-57
2023/03/01 04:17:51;;;;;;;9.70;5.28;;;;;;;;;;5083844;28;20032;-57
2023/03/01 04:20:24;;;;;;;10.02;6.15;;;;;;;;;;5078342;28;20098;-57
2023/03/01 04:22:51;;;;;;;8.65;4.78;;;;;;;;;;5079637;28;20036;-57
2023/03/01 04:25:17;;;;;;;8.75;4.35;;;;;;;;;;5080851;28;20075;-57
2023/03/01 04:27:43;;;;;;;11.00;5.90;;;;;;;;;;5080949;28;20033;-57
2023/03/01 04:30:10;;;;;;;9.45;5.82;;;;;;;;;;5079329;27;20079;-57
2023/03/01 04:32:36;;;;;;;13.02;4.85;;;;;;;;;;5082995;27;20046;-57
2023/03/01 04:35:02;;;;;;;10.43;6.22;;;;;;;;;;5078972;28;20044;-57
2023/03/01 04:37:29;;;;;;;8.68;5.07;;;;;;;;;;5081003;28;20132;-57
2023/03/01 04:39:55;;;;;;;9.80;6.07;;;;;;;;;;5081098;28;20151;-57
2023/03/01 04:42:21;;;;;;;8.63;4.90;;;;;;;;;;5078728;28;20976;-57
2023/03/01 04:44:47;;;;;;;9.25;6.25;;;;;;;;;;5079683;28;20469;-57
2023/03/01 04:47:13;;;;;;;9.73;5.07;;;;;;;;;;5077329;28;20592;-57
2023/03/01 04:49:39;;;;;;;7.25;3.13;;;;;;;;;;5080591;27;20068;-57
2023/03/01 04:52:05;;;;;;;9.88;3.55;;;;;;;;;;5079607;27;20048;-58
2023/03/01 04:54:32;;;;;;;10.85;5.85;;;;;;;;;;5096522;27;20068;-57
2023/03/01 04:56:59;;;;;;;9.20;5.40;;;;;;;;;;5082483;28;20119;-57
2023/03/01 04:59:25;;;;;;;10.32;5.25;;;;;;;;;;5080213;28;20046;-57
2023/03/01 05:02:00;;;;;;;6.72;2.92;;;;;;;;;;5080570;28;20036;-57
2023/03/01 05:04:26;;;;;;;10.82;5.75;;;;;;;;;;5076958;28;20451;-57
2023/03/01 05:06:53;;;;;;;9.82;5.72;;;;;;;;;;5079199;28;20047;-57
2023/03/01 05:09:19;;;;;;;8.93;4.72;;;;;;;;;;5079554;28;20040;-57
2023/03/01 05:11:46;;;;;;;9.82;6.35;;;;;;;;;;5081552;27;20049;-57
2023/03/01 05:14:12;;;;;;;9.40;5.88;;;;;;;;;;5078976;28;20145;-57
2023/03/01 05:16:38;;;;;;;9.93;5.30;;;;;;;;;;5081946;28;20040;-57
2023/03/01 05:19:11;;;;;;;6.85;4.88;;;;;;;;;;5076271;28;20051;-57
2023/03/01 05:22:01;;;;;;;6.93;4.10;;;;;;;;;;5080009;28;20040;-57
2023/03/01 05:24:24;;;;;;;6.90;4.13;;;;;;;;;;5078516;27;20048;-57
2023/03/01 05:26:53;;;;;;;9.55;5.57;;;;;;;;;;5080713;28;20079;-57
2023/03/01 05:29:24;;;;;;;5.60;3.33;;;;;;;;;;5082950;28;20497;-57
2023/03/01 05:32:09;;;;;;;8.17;4.33;;;;;;;;;;5078613;28;20036;-58
2023/03/01 05:34:36;;;;;;;7.47;4.30;;;;;;;;;;5080107;28;20267;-57
2023/03/01 05:37:02;;;;;;;8.02;4.40;;;;;;;;;;5079495;28;20056;-58
2023/03/01 05:39:29;;;;;;;11.18;5.78;;;;;;;;;;5077439;28;20045;-58
2023/03/01 05:41:56;;;;;;;4.80;3.78;;;;;;;;;;5080582;28;21804;-57
2023/03/01 05:44:22;;;;;;;7.32;4.53;;;;;;;;;;5078779;28;20043;-57
2023/03/01 05:46:49;;;;;;;6.25;3.80;;;;;;;;;;5074268;28;20086;-57
2023/03/01 05:49:15;;;;;;;7.93;4.75;;;;;;;;;;5072834;28;20036;-57
2023/03/01 05:51:42;;;;;;;9.63;5.50;;;;;;;;;;5079091;28;20068;-57
2023/03/01 05:54:08;;;;;;;7.22;4.32;;;;;;;;;;5078005;28;20075;-57
2023/03/01 05:56:35;;;;;;;8.77;5.00;;;;;;;;;;5074080;28;20537;-58
2023/03/01 05:59:02;;;;;;;8.35;4.03;;;;;;;;;;5077160;28;20466;-57
2023/03/01 06:01:29;;;;;;;9.60;7.18;;;;;;;;;;5079490;28;20136;-57
2023/03/01 06:03:55;;;;;;;13.95;6.28;;;;;;;;;;5078691;28;20636;-57
2023/03/01 06:06:21;;;;;;;8.93;5.22;;;;;;;;;;5080130;28;20066;-57
2023/03/01 06:08:48;;;;;;;11.93;5.00;;;;;;;;;;5077610;28;20033;-57
2023/03/01 06:11:14;;;;;;;13.50;6.72;;;;;;;;;;5080582;28;20123;-57
2023/03/01 06:13:41;;;;;;;11.07;6.55;;;;;;;;;;5077437;28;20886;-58
2023/03/01 06:16:07;;;;;;;9.52;5.80;;;;;;;;;;5074959;28;20118;-58
2023/03/01 06:18:33;;;;;;;11.82;6.63;;;;;;;;;;5066162;28;20578;-58
2023/03/01 06:21:00;;;;;;;7.45;3.90;;;;;;;;;;5074877;28;20033;-58
2023/03/01 06:23:26;;;;;;;10.25;6.40;;;;;;;;;;5070944;28;20055;-59
2023/03/01 06:25:52;;;;;;;7.75;3.72;;;;;;;;;;5074951;28;20478;-58
2023/03/01 06:28:18;;;;;;;7.35;4.78;;;;;;;;;;5076957;28;20041;-58
2023/03/01 06:30:44;;;;;;;9.07;5.65;;;;;;;;;;5074408;28;20055;-58
2023/03/01 06:33:10;;;;;;;13.13;6.43;;;;;;;;;;5076194;28;20530;-57
2023/03/01 06:35:36;;;;;;;7.82;5.40;;;;;;;;;;5082880;28;20051;-58
2023/03/01 06:38:03;;;;;;;5.70;3.80;;;;;;;;;;5080403;28;20086;-58
2023/03/01 06:40:31;;;;;;;9.35;4.28;;;;;;;;;;5081022;28;20127;-58
2023/03/01 06:42:57;;;;;;;12.55;6.72;;;;;;;;;;5084705;28;20067;-58
2023/03/01 06:45:24;;;;;;;11.13;5.85;;;;;;;;;;5082177;28;20066;-58
2023/03/01 06:47:50;;;;;;;7.15;3.90;;;;;;;;;;5083134;28;20499;-58
2023/03/01 06:50:17;;;;;;;11.82;6.30;;;;;;;;;;5084365;28;20420;-58
2023/03/01 06:52:44;;;;;;;10.95;6.18;;;;;;;;;;5081725;28;20109;-58
2023/03/01 06:55:10;;;;;;;14.30;6.97;;;;;;;;;;5080783;28;20051;-58
2023/03/01 06:57:36;;;;;;;13.55;7.35;;;;;;;;;;5080576;28;20095;-58
2023/03/01 07:00:04;;;;;;;13.98;6.40;;;;;;;;;;5084735;28;20201;-58
2023/03/01 07:02:30;;;;;;;10.45;4.88;;;;;;;;;;5080202;28;20784;-58
2023/03/01 07:04:56;;;;;;;17.10;8.55;;;;;;;;;;5083292;28;20043;-58
2023/03/01 07:07:22;;;;;;;16.40;7.20;;;;;;;;;;5082840;28;20051;-58
2023/03/01 07:09:49;;;;;;;12.40;7.35;;;;;;;;;;5083829;28;20554;-58
2023/03/01 07:12:15;;;;;;;14.43;7.72;;;;;;;;;;5077017;28;20047;-58
2023/03/01 07:14:42;;;;;;;13.02;7.03;;;;;;;;;;5076458;28;20049;-58
2023/03/01 07:17:08;;;;;;;13.48;7.25;;;;;;;;;;5080699;28;20056;-58
2023/03/01 07:19:34;;;;;;;12.13;7.22;;;;;;;;;;5081223;28;20515;-58
2023/03/01 07:22:00;;;;;;;10.40;5.18;;;;;;;;;;5081214;28;20044;-58
2023/03/01 07:24:26;;;;;;;14.35;7.65;;;;;;;;;;5078913;28;20044;-58
2023/03/01 07:26:53;;;;;;;8.90;4.85;;;;;;;;;;5081642;27;20033;-58
2023/03/01 07:29:19;;;;;;;14.48;7.28;;;;;;;;;;5080152;28;20048;-58
2023/03/01 07:31:45;;;;;;;9.02;5.18;;;;;;;;;;5081292;28;20044;-58
2023/03/01 07:34:11;;;;;;;12.45;6.40;;;;;;;;;;5081028;28;20211;-58
2023/03/01 07:36:39;;;;;;;10.05;4.75;;;;;;;;;;5078424;28;20476;-58
2023/03/01 07:39:05;;;;;;;13.85;6.80;;;;;;;;;;5072087;28;20117;-58
2023/03/01 07:41:31;;;;;;;6.63;3.78;;;;;;;;;;5076258;28;20053;-58
2023/03/01 07:43:57;;;;;;;12.38;7.35;;;;;;;;;;5076967;28;20072;-58
2023/03/01 07:46:24;;;;;;;16.17;9.05;;;;;;;;;;5073083;28;20040;-59
2023/03/01 07:48:50;;;;;;;14.25;8.95;;;;;;;;;;5078957;28;20064;-58
2023/03/01 07:51:16;;;;;;;10.82;5.85;;;;;;;;;;5075805;28;20066;-58
2023/03/01 07:53:42;;;;;;;16.92;8.45;;;;;;;;;;5079848;28;20100;-58
2023/03/01 07:56:09;;;;;;;16.45;7.53;;;;;;;;;;5076104;28;20053;-58
2023/03/01 07:58:36;;;;;;;13.68;7.90;;;;;;;;;;5074674;28;20068;-58
2023/03/01 08:01:03;;;;;;;19.20;9.63;;;;;;;;;;5081350;27;20102;-58
2023/03/01 08:03:29;;;;;;;21.65;8.70;;;;;;;;;;5072174;27;20626;-58
2023/03/01 08:05:55;;;;;;;10.63;5.93;;;;;;;;;;5075724;28;20044;-58
2023/03/01 08:08:21;;;;;;;17.30;9.02;;;;;;;;;;5083451;28;20094;-58
2023/03/01 08:10:47;;;;;;;16.92;8.45;;;;;;;;;;5079815;28;20590;-58
2023/03/01 08:13:14;;;;;;;22.98;11.25;;;;;;;;;;5082195;28;20558;-60
2023/03/01 08:15:40;;;;;;;14.32;9.25;;;;;;;;;;5082656;28;20572;-58
2023/03/01 08:18:06;;;;;;;13.52;8.45;;;;;;;;;;5080030;28;20047;-58
2023/03/01 08:20:32;;;;;;;16.58;7.93;;;;;;;;;;5080536;28;20072;-58
2023/03/01 08:22:58;;;;;;;19.92;10.25;;;;;;;;;;5081090;28;20108;-58
2023/03/01 08:25:24;;;;;;;17.98;6.75;;;;;;;;;;5082335;28;20698;-59
2023/03/01 08:27:50;;;;;;;11.48;7.85;;;;;;;;;;5084726;28;20124;-58
2023/03/01 08:30:17;;;;;;;16.60;8.70;;;;;;;;;;5076140;28;20048;-58
2023/03/01 08:32:43;;;;;;;14.02;7.88;;;;;;;;;;5085037;28;20641;-58
2023/03/01 08:35:09;;;;;;;12.30;7.90;;;;;;;;;;5081374;28;20160;-58
2023/03/01 08:37:35;;;;;;;11.55;8.05;;;;;;;;;;5082900;28;20518;-58
2023/03/01 08:40:03;;;;;;;23.48;7.72;;;;;;;;;;5083728;28;20048;-58
2023/03/01 08:42:29;;;;;;;22.10;8.40;;;;;;;;;;5083268;28;20671;-59
2023/03/01 08:44:56;;;;;;;14.63;8.00;;;;;;;;;;5084174;28;20430;-58
2023/03/01 08:47:22;;;;;;;17.25;6.97;;;;;;;;;;5083628;28;20880;-58
2023/03/01 08:49:49;;;;;;;13.75;8.02;;;;;;;;;;5083099;28;20364;-58
2023/03/01 08:52:15;;;;;;;18.75;8.60;;;;;;;;;;5079903;28;20534;-58
2023/03/01 08:54:41;;;;;;;10.55;6.50;;;;;;;;;;5080855;28;20037;-58
2023/03/01 08:57:09;;;;;;;16.75;9.45;;;;;;;;;;5079781;28;20040;-58
2023/03/01 08:59:37;;;;;;;13.23;7.47;;;;;;;;;;5084204;28;20053;-58
2023/03/01 09:02:03;;;;;;;15.65;8.60;;;;;;;;;;5080930;28;20036;-58
2023/03/01 09:04:29;;;;;;;16.25;7.93;;;;;;;;;;5068779;28;20624;-59
2023/03/01 09:06:55;;;;;;;13.38;7.72;;;;;;;;;;5082952;28;20041;-58
2023/03/01 09:09:22;;;;;;;16.00;8.45;;;;;;;;;;5081772;28;20091;-58
2023/03/01 09:11:49;;;;;;;15.48;8.75;;;;;;;;;;5083617;28;20056;-58
2023/03/01 09:14:15;;;;;;;22.67;10.25;;;;;;;;;;5085099;28;20653;-58
2023/03/01 09:16:42;;;;;;;12.27;7.13;;;;;;;;;;5084912;28;20564;-59
2023/03/01 09:19:08;;;;;;;14.25;7.80;;;;;;;;;;5083030;28;20052;-58
2023/03/01 09:21:34;;;;;;;11.20;6.78;;;;;;;;;;5079488;28;20036;-58
2023/03/01 09:24:00;;;;;;;14.95;9.93;;;;;;;;;;5080151;28;20045;-58
2023/03/01 09:26:26;;;;;;;13.15;7.60;;;;;;;;;;5083026;28;20064;-58
2023/03/01 09:28:55;;;;;;;15.07;7.40;;;;;;;;;;5083517;28;20499;-58
2023/03/01 09:31:22;;;;;;;14.77;8.63;;;;;;;;;;5079999;28;20036;-58
2023/03/01 09:33:49;;;;;;;14.73;9.50;;;;;;;;;;5083830;28;20094;-58
2023/03/01 09:36:16;;;;;;;19.20;8.52;;;;;;;;;;5083354;28;20072;-58
2023/03/01 09:38:42;;;;;;;18.15;8.25;;;;;;;;;;5081750;28;20125;-58
2023/03/01 09:41:31;;;;;;;22.30;9.27;;;;;;;;;;5082348;28;20041;-58
2023/03/01 09:44:04;;;;;;;14.95;7.55;;;;;;;;;;5078960;27;20036;-58
2023/03/01 09:46:32;;;;;;;17.88;9.18;;;;;;;;;;5080502;28;20050;-58
2023/03/01 09:49:01;;;;;;;18.17;10.93;;;;;;;;;;5079989;28;20055;-57
2023/03/01 09:51:31;;;;;;;13.52;8.65;;;;;;;;;;5082264;28;20131;-58
2023/03/01 09:53:58;;;;;;;11.82;6.72;;;;;;;;;;5082088;28;20514;-58
2023/03/01 09:56:24;;;;;;;16.25;9.45;;;;;;;;;;5079362;28;20098;-58
2023/03/01 09:58:53;;;;;;;14.07;9.25;;;;;;;;;;5080732;28;20628;-58
2023/03/01 10:01:27;;;;;;;18.38;9.70;;;;;;;;;;5080590;28;20565;-58
2023/03/01 10:04:05;;;;;;;17.77;10.10;;;;;;;;;;5078778;28;20514;-58
2023/03/01 10:06:31;;;;;;;8.05;5.82;;;;;;;;;;5076633;28;20552;-58
2023/03/01 10:08:58;;;;;;;16.15;8.70;;;;;;;;;;5080849;28;20131;-58
2023/03/01 10:11:27;;;;;;;12.38;7.05;;;;;;;;;;5082128;27;20772;-58
2023/03/01 10:14:13;;;;;;;18.05;8.85;;;;;;;;;;5080221;28;20514;-58
2023/03/01 10:16:40;;;;;;;12.95;8.27;;;;;;;;;;5085891;28;20938;-58
2023/03/01 10:19:07;;;;;;;16.92;8.88;;;;;;;;;;5084489;28;20787;-58
2023/03/01 10:21:39;;;;;;;6.78;4.43;;;;;;;;;;5084590;28;20045;-58
2023/03/01 10:24:13;;;;;;;13.90;6.97;;;;;;;;;;5082310;28;20048;-58
2023/03/01 10:27:02;;;;;;;13.20;7.28;;;;;;;;;;5083155;28;20556;-58
2023/03/01 10:29:31;;;;;;;9.75;6.07;;;;;;;;;;5085491;27;21496;-58
2023/03/01 10:31:58;;;;;;;9.48;5.72;;;;;;;;;;5084725;28;20046;-58
2023/03/01 10:34:30;;;;;;;14.18;7.00;;;;;;;;;;5084964;27;20621;-58
2023/03/01 10:36:56;;;;;;;;;;;;;;;;;;5086467;28;20039;-58
2023/03/01 10:39:23;;;;;;;20.15;8.13;;;;;;;;;;5085001;28;19924;-58
2023/03/01 10:41:58;;;;;;;18.10;9.38;;;;;;;;;;5083717;28;20540;-58
2023/03/01 10:44:39;;;;;;;12.65;8.93;;;;;;;;;;5084394;27;20437;-59
2023/03/01 10:47:05;;;;;;;18.77;9.25;;;;;;;;;;5087128;28;20048;-58
2023/03/01 10:49:32;;;;;;;10.45;6.70;;;;;;;;;;5084171;28;20051;-58
2023/03/01 10:52:11;;;;;;;17.45;9.75;;;;;;;;;;5084948;28;20580;-59
2023/03/01 10:54:40;;;;;;;15.45;8.35;;;;;;;;;;5087077;28;20355;-58
2023/03/01 10:57:06;;;;;;;10.35;5.95;;;;;;;;;;5084158;28;20095;-58
2023/03/01 10:59:33;;;;;;;12.05;6.60;;;;;;;;;;5083062;28;20051;-58
2023/03/01 11:02:15;;;;;;;8.68;4.82;;;;;;;;;;5085549;28;20036;-59
2023/03/01 11:04:56;;;;;;;12.63;5.83;;;;;;;;;;5081420;28;20051;-61
2023/03/01 11:07:22;;;;;;;11.80;6.28;;;;;;;;;;5084580;28;20064;-59
2023/03/01 11:09:48;;;;;;;9.27;5.97;;;;;;;;;;5081389;28;20048;-58
2023/03/01 11:12:15;;;;;;;9.80;5.72;;;;;;;;;;5083942;28;20132;-59
2023/03/01 11:14:55;;;;;;;13.95;6.53;;;;;;;;;;5083220;27;20741;-58
2023/03/01 11:17:27;;;;;;;14.70;7.85;;;;;;;;;;5080138;28;20036;-59
2023/03/01 11:19:53;;;;;;;;;;;;;;;;;;5081134;28;20045;-58
2023/03/01 11:22:21;;;;;;;16.75;10.45;;;;;;;;;;5081179;28;19920;-59
2023/03/01 11:24:48;;;;;;;15.18;8.90;;;;;;;;;;5084314;28;20086;-58
2023/03/01 11:27:20;;;;;;;13.93;7.43;;;;;;;;;;5082040;28;20557;-58
2023/03/01 11:29:53;;;;;;;18.35;8.95;;;;;;;;;;5080938;28;20202;-58
2023/03/01 11:32:20;;;;;;;14.70;9.82;;;;;;;;;;5072428;28;20049;-58
2023/03/01 11:34:46;;;;;;;17.40;9.57;;;;;;;;;;5082713;28;20066;-59
2023/03/01 11:37:17;;;;;;;17.83;8.77;;;;;;;;;;5086003;28;20517;-58
2023/03/01 11:39:59;;;;;;;11.60;6.93;;;;;;;;;;5080688;28;20056;-58
2023/03/01 11:42:29;;;;;;;14.30;8.25;;;;;;;;;;5084611;28;20795;-58
2023/03/01 11:44:56;;;;;;;35.85;7.97;;;;;;;;;;5084535;28;20049;-58
2023/03/01 11:47:25;;;;;;;12.80;7.07;;;;;;;;;;5084072;28;20039;-59
2023/03/01 11:49:54;;;;;;;15.13;8.75;;;;;;;;;;5085237;28;20154;-59
2023/03/01 11:52:20;;;;;;;13.90;8.52;;;;;;;;;;5084863;28;20049;-58
2023/03/01 11:55:05;;;;;;;13.50;7.80;;;;;;;;;;5082281;28;20392;-58
2023/03/01 11:57:40;;;;;;;16.45;8.20;;;;;;;;;;5083575;28;20040;-58
2023/03/01 12:00:06;;;;;;;13.75;9.70;;;;;;;;;;5081386;28;20541;-59
2023/03/01 12:02:38;;;;;;;11.82;6.68;;;;;;;;;;5079549;28;20083;-58
2023/03/01 12:05:04;;;;;;;;;;;;;;;;;;5077797;28;20040;-59
2023/03/01 12:07:33;;;;;;;16.70;7.70;;;;;;;;;;5084094;28;19948;-59
2023/03/01 12:10:16;;;;;;;12.38;7.13;;;;;;;;;;5081921;28;20051;-58
2023/03/01 12:13:18;;;;;;;17.00;8.32;;;;;;;;;;5085624;28;20530;-58
2023/03/01 12:15:44;;;;;;;11.88;7.93;;;;;;;;;;5060434;28;20447;-58
2023/03/01 12:18:10;;;;;;;14.77;7.15;;;;;;;;;;5080261;28;20068;-58
2023/03/01 12:20:55;;;;;;;14.48;7.38;;;;;;;;;;5081679;28;20044;-58
2023/03/01 12:23:39;;;;;;;12.18;6.47;;;;;;;;;;5080234;28;20309;-59
2023/03/01 12:26:24;;;;;;;12.95;7.72;;;;;;;;;;5084085;28;20051;-58
2023/03/01 12:29:09;;;;;;;13.18;8.38;;;;;;;;;;5085389;28;20043;-58
2023/03/01 12:31:41;;;;;;;16.13;8.02;;;;;;;;;;5082820;28;20154;-59
2023/03/01 12:34:22;;;;;;;15.02;9.93;;;;;;;;;;5082948;28;20060;-58
2023/03/01 12:37:07;;;;;;;11.00;7.65;;;;;;;;;;5082483;28;20574;-59
2023/03/01 12:39:49;;;;;;;25.85;8.85;;;;;;;;;;5083188;28;20051;-59
2023/03/01 12:42:27;;;;;;;16.17;9.55;;;;;;;;;;5083053;28;20049;-59
2023/03/01 12:45:02;;;;;;;16.35;9.40;;;;;;;;;;5082272;28;20561;-58
2023/03/01 12:47:37;;;;;;;15.98;10.70;;;;;;;;;;5080816;28;20039;-58
2023/03/01 12:50:11;;;;;;;9.93;6.10;;;;;;;;;;5082574;28;20514;-58
2023/03/01 12:52:42;;;;;;;15.02;8.48;;;;;;;;;;5079059;28;20048;-58
2023/03/01 12:55:16;;;;;;;14.32;8.23;;;;;;;;;;5078546;28;20597;-58
2023/03/01 12:57:48;;;;;;;14.80;8.63;;;;;;;;;;5083568;28;20044;-59
2023/03/01 13:00:20;;;;;;;12.95;6.50;;;;;;;;;;5081050;28;20036;-59
2023/03/01 13:02:51;;;;;;;14.93;8.30;;;;;;;;;;5081829;28;20341;-58
2023/03/01 13:05:32;;;;;;;13.70;8.82;;;;;;;;;;5083668;28;20659;-58
2023/03/01 13:08:21;;;;;;;17.98;9.70;;;;;;;;;;5083145;28;20033;-58
2023/03/01 13:10:48;;;;;;;14.48;7.88;;;;;;;;;;5083434;28;20040;-59
2023/03/01 13:13:24;;;;;;;19.92;8.88;;;;;;;;;;5080299;28;20052;-58
2023/03/01 13:15:53;;;;;;;16.20;10.52;;;;;;;;;;5081799;28;20129;-59
2023/03/01 13:18:19;;;;;;;9.55;6.82;;;;;;;;;;5084465;28;20044;-58
2023/03/01 13:20:48;;;;;;;13.60;7.28;;;;;;;;;;5084634;28;20136;-58
2023/03/01 13:23:24;;;;;;;12.20;7.90;;;;;;;;;;5079897;28;20529;-60
2023/03/01 13:26:11;;;;;;;11.77;6.63;;;;;;;;;;5084252;28;20438;-58
2023/03/01 13:28:42;;;;;;;13.27;7.95;;;;;;;;;;5078147;28;20044;-59
2023/03/01 13:31:09;;;;;;;13.35;7.45;;;;;;;;;;5082483;28;20136;-58
2023/03/01 13:33:54;;;;;;;13.00;6.85;;;;;;;;;;5082989;27;20057;-58
2023/03/01 13:36:29;;;;;;;12.65;6.72;;;;;;;;;;5082464;28;20045;-59
2023/03/01 13:38:57;;;;;;;13.40;7.63;;;;;;;;;;5080314;28;20683;-59
2023/03/01 13:41:38;;;;;;;10.73;7.30;;;;;;;;;;5081383;28;20063;-59
2023/03/01 13:44:21;;;;;;;10.88;5.57;;;;;;;;;;5081404;28;20538;-59
2023/03/01 13:46:47;;;;;;;9.70;5.82;;;;;;;;;;5081091;28;20040;-58
2023/03/01 13:49:16;;;;;;;13.57;7.43;;;;;;;;;;5082515;28;20168;-58
2023/03/01 13:51:46;;;;;;;11.02;7.95;;;;;;;;;;5082111;27;20072;-59
2023/03/01 13:54:14;;;;;;;10.85;6.50;;;;;;;;;;5077454;27;20155;-58
2023/03/01 13:56:41;;;;;;;11.07;8.18;;;;;;;;;;5081030;28;20044;-58
2023/03/01 13:59:14;;;;;;;15.80;9.27;;;;;;;;;;5081707;28;20041;-59
2023/03/01 14:01:40;;;;;;;13.45;8.70;;;;;;;;;;5083419;28;20040;-58
2023/03/01 14:04:40;;;;;;;14.38;8.77;;;;;;;;;;5081759;28;20040;-58
2023/03/01 14:07:19;;;;;;;15.73;8.68;;;;;;;;;;5058429;28;20049;-58
2023/03/01 14:09:47;;;;;;;13.63;7.07;;;;;;;;;;5082129;27;20044;-59
2023/03/01 14:12:24;;;;;;;14.40;9.10;;;;;;;;;;5081014;28;20193;-58
2023/03/01 14:15:09;;;;;;;12.10;8.13;;;;;;;;;;5083086;28;20595;-58
2023/03/01 14:17:44;;;;;;;9.35;6.15;;;;;;;;;;5074868;28;20048;-59
2023/03/01 14:20:13;;;;;;;14.45;8.18;;;;;;;;;;5082198;28;20535;-59
2023/03/01 14:22:41;;;;;;;17.13;8.88;;;;;;;;;;5081217;28;20094;-58
2023/03/01 14:25:19;;;;;;;12.48;6.10;;;;;;;;;;5082059;28;20113;-59
2023/03/01 14:27:45;;;;;;;7.72;5.07;;;;;;;;;;5082630;28;20036;-58
2023/03/01 14:30:40;;;;;;;14.95;8.45;;;;;;;;;;5082238;28;20111;-58
2023/03/01 14:33:18;;;;;;;12.43;7.97;;;;;;;;;;5077521;28;20538;-58
2023/03/01 14:35:52;;;;;;;13.00;7.53;;;;;;;;;;5081266;28;20740;-58
2023/03/01 14:38:22;;;;;;;11.73;6.75;;;;;;;;;;5080201;28;20048;-58
2023/03/01 14:40:51;;;;;;;11.13;7.10;;;;;;;;;;5078620;28;20041;-59
2023/03/01 14:43:21;;;;;;;22.83;8.07;;;;;;;;;;5079921;28;20045;-59
2023/03/01 14:45:48;;;;;;;8.13;5.43;;;;;;;;;;5081389;28;20507;-58
2023/03/01 14:48:15;;;;;;;14.13;8.38;;;;;;;;;;5065201;28;20669;-58
2023/03/01 14:50:42;;;;;;;12.55;6.47;;;;;;;;;;5080254;28;20037;-59